createdAt,value
2022-10-11T00:01:41.848Z,57.88
2022-10-11T00:04:13.746Z,59.59
2022-10-11T00:06:47.220Z,64.04
2022-10-11T00:09:19.031Z,66.50
2022-10-11T00:11:50.743Z,65.05
2022-10-11T00:14:22.410Z,63.33
2022-10-11T00:16:54.509Z,61.76
2022-10-11T00:19:26.224Z,60.65
2022-10-11T00:21:57.927Z,59.98
2022-10-11T00:24:29.795Z,58.13
2022-10-11T00:27:01.496Z,57.73
2022-10-11T00:29:33.332Z,59.26
2022-10-11T00:32:05.887Z,63.59
2022-10-11T00:34:37.679Z,66.89
2022-10-11T00:37:09.566Z,66.36
2022-10-11T00:39:41.258Z,65.34
2022-10-11T00:42:16.010Z,64.27
2022-10-11T00:44:49.589Z,62.90
2022-10-11T00:47:24.585Z,62.13
2022-10-11T00:50:00.424Z,61.57
2022-10-11T00:52:35.848Z,61.05
2022-10-11T00:55:10.864Z,60.38
2022-10-11T00:57:47.431Z,60.27
2022-10-11T01:00:20.395Z,58.15
2022-10-11T01:02:52.199Z,57.74
2022-10-11T01:05:31.691Z,59.02
2022-10-11T01:08:03.734Z,60.32
2022-10-11T01:10:38.406Z,65.16
2022-10-11T01:13:19.198Z,67.89
2022-10-11T01:15:58.303Z,66.62
2022-10-11T01:18:35.354Z,64.61
2022-10-11T01:21:17.374Z,62.82
2022-10-11T01:24:25.396Z,61.90
2022-10-11T01:27:12.746Z,61.57
2022-10-11T01:29:53.666Z,61.67
2022-10-11T01:32:34.787Z,60.60
2022-10-11T01:35:11.576Z,58.09
2022-10-11T01:37:49.186Z,56.65
2022-10-11T01:40:26.230Z,57.88
2022-10-11T01:42:58.786Z,59.26
2022-10-11T01:45:31.583Z,62.94
2022-10-11T01:48:10.248Z,65.50
2022-10-11T01:50:42.567Z,64.27
2022-10-11T01:53:38.776Z,63.35
2022-10-11T01:56:22.677Z,61.76
2022-10-11T01:59:11.457Z,60.58
2022-10-11T02:01:55.737Z,57.34
2022-10-11T02:04:34.781Z,56.37
2022-10-11T02:07:12.032Z,57.52
2022-10-11T02:09:48.273Z,58.95
2022-10-11T02:12:26.371Z,63.16
2022-10-11T02:14:59.963Z,65.81
2022-10-11T02:17:36.785Z,64.13
2022-10-11T02:20:14.410Z,62.64
2022-10-11T02:22:49.582Z,61.24
2022-10-11T02:25:25.255Z,60.73
2022-10-11T02:28:00.592Z,59.82
2022-10-11T02:30:34.247Z,57.13
2022-10-11T02:33:10.905Z,56.33
2022-10-11T02:35:47.268Z,57.23
2022-10-11T02:38:23.571Z,58.79
2022-10-11T02:40:59.081Z,60.42
2022-10-11T02:43:36.681Z,64.70
2022-10-11T02:46:10.626Z,67.20
2022-10-11T02:48:42.314Z,65.70
2022-10-11T02:51:16.057Z,63.67
2022-10-11T02:53:47.784Z,62.09
2022-10-11T02:56:19.520Z,60.92
2022-10-11T02:58:51.454Z,60.21
2022-10-11T03:01:23.299Z,58.02
2022-10-11T03:03:55.167Z,56.63
2022-10-11T03:06:26.832Z,57.31
2022-10-11T03:08:58.608Z,58.83
2022-10-11T03:11:30.369Z,60.33
2022-10-11T03:14:02.086Z,64.37
2022-10-11T03:16:33.840Z,66.82
2022-10-11T03:19:05.626Z,65.18
2022-10-11T03:21:37.503Z,63.48
2022-10-11T03:24:09.946Z,62.61
2022-10-11T03:26:41.810Z,61.55
2022-10-11T03:29:13.815Z,60.94
2022-10-11T03:31:45.596Z,58.49
2022-10-11T03:34:17.239Z,56.80
2022-10-11T03:36:48.985Z,57.55
2022-10-11T03:39:20.915Z,58.67
2022-10-11T03:41:52.583Z,60.01
2022-10-11T03:44:24.293Z,63.93
2022-10-11T03:46:55.910Z,66.98
2022-10-11T03:49:27.676Z,65.06
2022-10-11T03:51:59.327Z,62.86
2022-10-11T03:54:31.311Z,61.32
2022-10-11T03:57:02.984Z,60.50
2022-10-11T03:59:34.782Z,58.32
2022-10-11T04:02:06.553Z,56.93
2022-10-11T04:04:39.555Z,57.79
2022-10-11T04:07:11.381Z,59.13
2022-10-11T04:09:43.075Z,60.37
2022-10-11T04:12:14.747Z,63.95
2022-10-11T04:14:46.459Z,66.78
2022-10-11T04:17:18.427Z,65.60
2022-10-11T04:19:50.161Z,63.63
2022-10-11T04:22:21.874Z,62.32
2022-10-11T04:24:54.336Z,61.35
2022-10-11T04:27:28.271Z,60.68
2022-10-11T04:29:59.968Z,60.32
2022-10-11T04:32:31.627Z,57.74
2022-10-11T04:35:04.865Z,56.26
2022-10-11T04:37:36.825Z,57.04
2022-10-11T04:40:10.989Z,58.42
2022-10-11T04:42:42.823Z,59.67
2022-10-11T04:45:14.692Z,63.52
2022-10-11T04:47:46.402Z,66.83
2022-10-11T04:50:18.494Z,65.37
2022-10-11T04:52:50.487Z,62.78
2022-10-11T04:55:22.300Z,61.39
2022-10-11T04:57:54.438Z,60.49
2022-10-11T05:00:27.535Z,58.29
2022-10-11T05:02:59.532Z,57.01
2022-10-11T05:05:31.760Z,57.82
2022-10-11T05:08:03.833Z,59.15
2022-10-11T05:10:35.825Z,63.39
2022-10-11T05:13:08.026Z,66.73
2022-10-11T05:15:39.875Z,65.46
2022-10-11T05:18:11.842Z,63.25
2022-10-11T05:20:44.045Z,62.12
2022-10-11T05:23:16.446Z,61.05
2022-10-11T05:25:48.304Z,60.20
2022-10-11T05:28:20.294Z,57.67
2022-10-11T05:30:52.090Z,56.71
2022-10-11T05:33:24.280Z,57.81
2022-10-11T05:35:56.108Z,59.04
2022-10-11T05:38:27.955Z,62.84
2022-10-11T05:41:03.328Z,65.23
2022-10-11T05:43:35.199Z,64.08
2022-10-11T05:46:08.180Z,62.64
2022-10-11T05:48:41.100Z,61.20
2022-10-11T05:51:14.363Z,60.48
2022-10-11T05:53:46.288Z,60.01
2022-10-11T05:56:23.216Z,58.04
2022-10-11T05:58:59.916Z,56.89
2022-10-11T06:01:34.119Z,57.95
2022-10-11T06:04:06.176Z,59.15
2022-10-11T06:06:37.990Z,60.31
2022-10-11T06:09:09.991Z,63.57
2022-10-11T06:11:42.627Z,66.13
2022-10-11T06:14:14.536Z,65.37
2022-10-11T06:16:46.477Z,63.51
2022-10-11T06:19:18.538Z,62.06
2022-10-11T06:21:50.373Z,60.75
2022-10-11T06:24:22.252Z,59.94
2022-10-11T06:26:54.643Z,57.23
2022-10-11T06:29:26.552Z,56.49
2022-10-11T06:31:58.663Z,57.18
2022-10-11T06:34:30.563Z,58.14
2022-10-11T06:37:02.374Z,58.88
2022-10-11T06:39:34.705Z,59.98
2022-10-11T06:42:06.705Z,63.69
2022-10-11T06:44:39.645Z,65.68
2022-10-11T06:47:11.529Z,64.36
2022-10-11T06:49:43.348Z,63.10
2022-10-11T06:52:15.195Z,61.73
2022-10-11T06:54:47.100Z,60.77
2022-10-11T06:57:18.762Z,57.64
2022-10-11T06:59:50.635Z,55.98
2022-10-11T07:02:22.296Z,56.28
2022-10-11T07:04:54.446Z,57.01
2022-10-11T07:07:26.545Z,58.05
2022-10-11T07:09:58.476Z,59.14
2022-10-11T07:12:30.503Z,59.76
2022-10-11T07:15:02.179Z,60.27
2022-10-11T07:17:34.087Z,63.23
2022-10-11T07:20:06.788Z,65.44
2022-10-11T07:22:38.722Z,63.61
2022-10-11T07:25:11.378Z,61.36
2022-10-11T07:27:43.291Z,58.00
2022-10-11T07:30:15.630Z,55.17
2022-10-11T07:32:47.392Z,55.67
2022-10-11T07:35:19.863Z,56.11
2022-10-11T07:37:51.966Z,56.77
2022-10-11T07:40:23.988Z,57.96
2022-10-11T07:42:57.034Z,58.15
2022-10-11T07:45:29.970Z,59.14
2022-10-11T07:48:02.599Z,59.04
2022-10-11T07:50:35.987Z,59.86
2022-10-11T07:53:08.118Z,61.15
2022-10-11T07:55:40.890Z,63.20
2022-10-11T07:58:14.098Z,62.86
2022-10-11T08:00:46.241Z,57.62
2022-10-11T08:03:18.082Z,55.67
2022-10-11T08:05:52.207Z,54.92
2022-10-11T08:08:24.512Z,55.55
2022-10-11T08:10:57.531Z,55.25
2022-10-11T08:13:29.906Z,55.79
2022-10-11T08:16:03.161Z,56.89
2022-10-11T08:18:40.257Z,57.89
2022-10-11T08:21:14.848Z,58.96
2022-10-11T08:23:47.123Z,59.76
2022-10-11T08:26:19.633Z,61.28
2022-10-11T08:28:51.571Z,63.68
2022-10-11T08:31:23.360Z,64.95
2022-10-11T08:33:55.807Z,62.51
2022-10-11T08:36:27.661Z,61.24
2022-10-11T08:38:59.527Z,58.65
2022-10-11T08:41:38.895Z,57.35
2022-10-11T08:44:21.999Z,57.09
2022-10-11T08:47:03.018Z,57.86
2022-10-11T08:49:36.163Z,59.08
2022-10-11T08:52:16.417Z,60.59
2022-10-11T08:54:53.145Z,60.64
2022-10-11T08:57:27.586Z,61.65
2022-10-11T09:00:04.552Z,61.52
2022-10-11T09:03:07.639Z,64.10
2022-10-11T09:05:50.780Z,64.47
2022-10-11T09:08:28.675Z,61.90
2022-10-11T09:11:05.751Z,58.87
2022-10-11T09:14:03.115Z,57.57
2022-10-11T09:16:48.705Z,57.13
2022-10-11T09:19:40.756Z,58.75
2022-10-11T09:22:28.083Z,59.92
2022-10-11T09:25:18.062Z,60.69
2022-10-11T09:28:02.923Z,64.05
2022-10-11T09:30:38.327Z,65.91
2022-10-11T09:33:18.918Z,64.31
2022-10-11T09:35:53.498Z,62.54
2022-10-11T09:38:36.947Z,59.08
2022-10-11T09:41:15.357Z,56.84
2022-10-11T09:43:51.390Z,57.05
2022-10-11T09:46:25.965Z,57.81
2022-10-11T09:48:59.654Z,59.75
2022-10-11T09:51:32.424Z,59.98
2022-10-11T09:54:06.474Z,61.27
2022-10-11T09:56:45.280Z,60.79
2022-10-11T09:59:30.566Z,61.11
2022-10-11T10:02:28.750Z,64.50
2022-10-11T10:05:03.702Z,65.48
2022-10-11T10:07:36.862Z,62.49
2022-10-11T10:10:31.123Z,59.14
2022-10-11T10:13:05.155Z,56.54
2022-10-11T10:15:38.657Z,56.05
2022-10-11T10:18:22.903Z,57.33
2022-10-11T10:20:57.784Z,57.47
2022-10-11T10:23:32.109Z,58.54
2022-10-11T10:26:21.072Z,59.21
2022-10-11T10:29:06.087Z,60.05
2022-10-11T10:32:08.777Z,60.72
2022-10-11T10:34:36.475Z,60.95
2022-10-11T10:37:19.999Z,61.26
2022-10-11T10:39:56.471Z,61.40
2022-10-11T10:42:29.114Z,61.65
2022-10-11T10:45:01.732Z,61.77
2022-10-11T10:47:53.756Z,62.14
2022-10-11T10:50:30.638Z,64.87
2022-10-11T10:53:16.461Z,63.50
2022-10-11T10:55:53.316Z,59.75
2022-10-11T10:58:35.884Z,56.84
2022-10-11T11:01:17.172Z,56.30
2022-10-11T11:03:54.628Z,57.60
2022-10-11T11:06:37.066Z,58.66
2022-10-11T11:09:26.438Z,59.37
2022-10-11T11:12:08.621Z,59.68
2022-10-11T11:14:50.649Z,60.45
2022-10-11T11:17:33.307Z,60.58
2022-10-11T11:20:18.608Z,60.98
2022-10-11T11:23:01.183Z,60.83
2022-10-11T11:25:44.811Z,60.88
2022-10-11T11:28:40.212Z,61.10
2022-10-11T11:31:26.040Z,61.65
2022-10-11T11:34:06.670Z,64.33
2022-10-11T11:36:43.450Z,64.12
2022-10-11T11:39:20.434Z,62.11
2022-10-11T11:41:57.454Z,57.58
2022-10-11T11:44:34.377Z,55.49
2022-10-11T11:47:12.218Z,55.58
2022-10-11T11:49:47.199Z,56.25
2022-10-11T11:52:27.048Z,57.31
2022-10-11T11:55:05.696Z,58.12
2022-10-11T11:57:53.457Z,58.84
2022-10-11T12:00:26.613Z,59.41
2022-10-11T12:03:01.707Z,59.99
2022-10-11T12:05:37.461Z,60.82
2022-10-11T12:08:25.895Z,60.75
2022-10-11T12:11:04.914Z,61.27
2022-10-11T12:13:39.069Z,64.66
2022-10-11T12:16:13.679Z,65.41
2022-10-11T12:18:56.003Z,62.35
2022-10-11T12:21:34.608Z,58.53
2022-10-11T12:24:22.660Z,56.91
2022-10-11T12:26:57.945Z,57.63
2022-10-11T12:29:50.812Z,58.78
2022-10-11T12:32:52.615Z,59.57
2022-10-11T12:35:57.367Z,60.07
2022-10-11T12:38:30.420Z,60.71
2022-10-11T12:41:22.670Z,60.97
2022-10-11T12:44:27.060Z,61.01
2022-10-11T12:47:24.120Z,61.48
2022-10-11T12:50:14.462Z,61.82
2022-10-11T12:53:01.103Z,61.77
2022-10-11T12:55:53.228Z,61.83
2022-10-11T12:58:30.778Z,65.44
2022-10-11T13:01:17.584Z,64.73
2022-10-11T13:03:58.418Z,61.65
2022-10-11T13:06:33.408Z,57.57
2022-10-11T13:09:16.704Z,55.34
2022-10-11T13:11:52.227Z,55.66
2022-10-11T13:14:26.639Z,56.20
2022-10-11T13:17:16.164Z,56.78
2022-10-11T13:19:52.391Z,57.53
2022-10-11T13:22:26.450Z,58.58
2022-10-11T13:24:59.376Z,59.12
2022-10-11T13:27:31.278Z,60.04
2022-10-11T13:30:08.609Z,60.46
2022-10-11T13:32:40.518Z,61.10
2022-10-11T13:35:23.934Z,61.38
2022-10-11T13:37:57.820Z,65.19
2022-10-11T13:40:30.625Z,65.90
2022-10-11T13:43:05.300Z,62.87
2022-10-11T13:45:39.290Z,59.72
2022-10-11T13:48:16.860Z,57.50
2022-10-11T13:51:08.068Z,57.47
2022-10-11T13:53:57.352Z,58.09
2022-10-11T13:56:31.074Z,58.94
2022-10-11T13:59:04.046Z,60.30
2022-10-11T14:01:41.991Z,60.65
2022-10-11T14:04:15.557Z,63.85
2022-10-11T14:06:54.738Z,65.29
2022-10-11T14:09:31.687Z,63.32
2022-10-11T14:12:30.387Z,61.61
2022-10-11T14:15:04.220Z,58.05
2022-10-11T14:17:42.135Z,56.88
2022-10-11T14:20:22.826Z,57.43
2022-10-11T14:22:55.178Z,58.08
2022-10-11T14:25:28.439Z,59.48
2022-10-11T14:28:01.388Z,60.45
2022-10-11T14:30:33.159Z,63.59
2022-10-11T14:33:06.517Z,65.56
2022-10-11T14:35:38.812Z,63.78
2022-10-11T14:38:13.001Z,62.30
2022-10-11T14:40:45.048Z,60.48
2022-10-11T14:43:16.881Z,57.04
2022-10-11T14:45:50.055Z,56.09
2022-10-11T14:48:42.991Z,56.66
2022-10-11T14:51:17.191Z,57.62
2022-10-11T14:53:48.947Z,59.50
2022-10-11T14:56:21.784Z,60.61
2022-10-11T14:58:53.810Z,63.22
2022-10-11T15:01:26.528Z,65.18
2022-10-11T15:03:58.370Z,63.23
2022-10-11T15:06:34.051Z,62.21
2022-10-11T15:09:06.375Z,60.68
2022-10-11T15:11:39.064Z,58.52
2022-10-11T15:14:10.927Z,57.12
2022-10-11T15:16:42.676Z,57.71
2022-10-11T15:19:17.593Z,59.25
2022-10-11T15:21:49.871Z,60.22
2022-10-11T15:24:21.697Z,63.03
2022-10-11T15:26:53.499Z,65.68
2022-10-11T15:29:25.868Z,64.11
2022-10-11T15:31:58.113Z,62.14
2022-10-11T15:34:30.096Z,61.52
2022-10-11T15:37:01.910Z,60.89
2022-10-11T15:39:33.990Z,60.16
2022-10-11T15:42:08.148Z,58.80
2022-10-11T15:44:40.452Z,57.88
2022-10-11T15:47:12.512Z,59.08
2022-10-11T15:49:44.313Z,60.34
2022-10-11T15:52:15.965Z,64.74
2022-10-11T15:54:47.683Z,66.73
2022-10-11T15:57:19.376Z,65.07
2022-10-11T15:59:51.097Z,63.43
2022-10-11T16:02:22.902Z,62.58
2022-10-11T16:04:55.527Z,61.82
2022-10-11T16:07:29.076Z,61.28
2022-10-11T16:10:00.850Z,61.25
2022-10-11T16:12:33.845Z,61.10
2022-10-11T16:15:06.338Z,60.48
2022-10-11T16:17:38.461Z,60.55
2022-10-11T16:20:11.293Z,60.16
2022-10-11T16:22:43.457Z,59.85
2022-10-11T16:25:15.737Z,60.09
2022-10-11T16:27:48.381Z,60.21
2022-10-11T16:30:21.409Z,60.03
2022-10-11T16:32:53.616Z,59.86
2022-10-11T16:35:30.172Z,60.22
2022-10-11T16:38:05.173Z,60.05
2022-10-11T16:40:37.962Z,60.06
2022-10-11T16:43:10.405Z,60.14
2022-10-11T16:45:42.181Z,59.53
2022-10-11T16:48:13.928Z,59.72
2022-10-11T16:50:46.030Z,59.76
2022-10-11T16:53:21.708Z,59.83
2022-10-11T16:55:54.042Z,59.89
2022-10-11T16:58:25.818Z,59.71
2022-10-11T17:00:57.741Z,57.96
2022-10-11T17:03:29.559Z,57.32
2022-10-11T17:06:01.353Z,58.64
2022-10-11T17:08:33.347Z,60.39
2022-10-11T17:11:06.256Z,64.66
2022-10-11T17:13:37.991Z,67.05
2022-10-11T17:16:10.512Z,65.83
2022-10-11T17:18:42.619Z,63.96
2022-10-11T17:21:17.336Z,63.05
2022-10-11T17:23:49.563Z,62.82
2022-10-11T17:26:24.963Z,62.00
2022-10-11T17:28:57.893Z,61.14
2022-10-11T17:31:30.988Z,60.34
2022-10-11T17:34:03.300Z,59.56
2022-10-11T17:36:35.743Z,57.93
2022-10-11T17:39:10.137Z,57.70
2022-10-11T17:41:42.037Z,58.63
2022-10-11T17:44:17.386Z,60.31
2022-10-11T17:46:49.684Z,64.33
2022-10-11T17:49:21.521Z,66.81
2022-10-11T17:51:53.386Z,65.58
2022-10-11T17:54:25.410Z,64.16
2022-10-11T17:56:58.333Z,62.33
2022-10-11T17:59:32.260Z,61.48
2022-10-11T18:02:04.221Z,60.38
2022-10-11T18:04:35.940Z,57.57
2022-10-11T18:07:07.727Z,56.61
2022-10-11T18:09:41.805Z,57.45
2022-10-11T18:12:13.539Z,58.70
2022-10-11T18:14:45.510Z,59.99
2022-10-11T18:17:17.278Z,63.56
2022-10-11T18:19:49.094Z,65.59
2022-10-11T18:22:21.507Z,63.50
2022-10-11T18:24:53.514Z,61.46
2022-10-11T18:27:25.202Z,60.17
2022-10-11T18:29:57.585Z,59.63
2022-10-11T18:32:29.278Z,58.27
2022-10-11T18:35:01.016Z,58.16
2022-10-11T18:37:33.607Z,59.68
2022-10-11T18:40:05.773Z,63.54
2022-10-11T18:42:37.567Z,66.51
2022-10-11T18:45:11.564Z,65.28
2022-10-11T18:47:43.377Z,64.84
2022-10-11T18:50:15.337Z,64.29
2022-10-11T18:52:48.624Z,63.54
2022-10-11T18:55:20.732Z,62.42
2022-10-11T18:57:52.566Z,61.42
2022-10-11T19:00:40.136Z,60.53
2022-10-11T19:03:13.178Z,59.93
2022-10-11T19:05:44.845Z,57.73
2022-10-11T19:08:16.618Z,56.93
2022-10-11T19:10:48.809Z,57.98
2022-10-11T19:13:20.890Z,59.67
2022-10-11T19:15:52.636Z,63.85
2022-10-11T19:18:25.606Z,66.80
2022-10-11T19:20:57.366Z,64.99
2022-10-11T19:23:32.264Z,62.79
2022-10-11T19:26:04.540Z,62.08
2022-10-11T19:28:36.830Z,61.69
2022-10-11T19:31:11.159Z,60.82
2022-10-11T19:33:42.965Z,60.62
2022-10-11T19:36:15.815Z,61.01
2022-10-11T19:38:50.140Z,59.87
2022-10-11T19:41:22.500Z,57.87
2022-10-11T19:43:54.774Z,57.50
2022-10-11T19:49:22.770Z,63.38
2022-10-11T19:51:55.988Z,66.43
2022-10-11T19:54:27.925Z,64.96
2022-10-11T19:56:59.645Z,62.86
2022-10-11T19:59:31.371Z,61.91
2022-10-11T20:02:03.100Z,61.51
2022-10-11T20:04:51.542Z,60.67
2022-10-11T20:07:24.133Z,59.89
2022-10-11T20:09:55.829Z,59.67
2022-10-11T20:12:29.383Z,58.27
2022-10-11T20:15:01.586Z,57.64
2022-10-11T20:17:47.206Z,58.75
2022-10-11T20:20:20.087Z,60.11
2022-10-11T20:22:53.693Z,63.76
2022-10-11T20:25:25.779Z,67.22
2022-10-11T20:27:57.452Z,66.85
2022-10-11T20:30:29.160Z,65.67
2022-10-11T20:33:01.069Z,64.02
2022-10-11T20:35:32.897Z,62.48
2022-10-11T20:38:07.779Z,60.99
2022-10-11T20:40:42.302Z,61.00
2022-10-11T20:43:14.935Z,62.04
2022-10-11T20:45:47.413Z,62.17
2022-10-11T20:48:19.184Z,61.70
2022-10-11T20:50:51.277Z,61.45
2022-10-11T20:53:23.063Z,60.43
2022-10-11T20:55:55.052Z,60.79
2022-10-11T20:58:26.867Z,60.25
2022-10-11T21:01:00.015Z,57.97
2022-10-11T21:03:31.909Z,56.82
2022-10-11T21:06:03.660Z,57.75
2022-10-11T21:08:36.084Z,58.92
2022-10-11T21:11:09.053Z,60.27
2022-10-11T21:13:41.249Z,64.81
2022-10-11T21:16:15.586Z,67.05
2022-10-11T21:18:50.937Z,65.74
2022-10-11T21:21:23.975Z,63.94
2022-10-11T21:23:57.729Z,62.53
2022-10-11T21:26:30.250Z,61.54
2022-10-11T21:29:04.632Z,60.66
2022-10-11T21:31:36.842Z,58.15
2022-10-11T21:34:08.971Z,58.64
2022-10-11T21:36:40.915Z,60.05
2022-10-11T21:39:12.641Z,64.04
2022-10-11T21:41:44.341Z,66.68
2022-10-11T21:44:16.065Z,65.97
2022-10-11T21:47:06.039Z,64.89
2022-10-11T21:49:38.997Z,63.90
2022-10-11T21:52:11.555Z,62.16
2022-10-11T21:54:43.265Z,61.29
2022-10-11T21:57:15.140Z,61.32
2022-10-11T21:59:46.849Z,59.95
2022-10-11T22:02:18.521Z,57.02
2022-10-11T22:04:50.194Z,55.98
2022-10-11T22:07:21.895Z,57.10
2022-10-11T22:09:53.690Z,58.29
2022-10-11T22:12:25.632Z,59.55
2022-10-11T22:14:57.354Z,60.71
2022-10-11T22:17:29.062Z,64.43
2022-10-11T22:20:00.797Z,66.78
2022-10-11T22:22:32.695Z,64.76
2022-10-11T22:25:05.294Z,62.52
2022-10-11T22:27:37.051Z,60.93
2022-10-11T22:30:12.146Z,58.40
2022-10-11T22:32:43.908Z,56.95
2022-10-11T22:35:15.580Z,58.10
2022-10-11T22:37:47.260Z,59.38
2022-10-11T22:40:19.455Z,60.75
2022-10-11T22:42:51.323Z,64.66
2022-10-11T22:45:23.548Z,67.38
2022-10-11T22:47:55.379Z,66.16
2022-10-11T22:50:27.071Z,64.17
2022-10-11T22:52:58.813Z,62.60
2022-10-11T22:55:30.642Z,61.65
2022-10-11T22:58:02.710Z,61.02
2022-10-11T23:00:34.996Z,60.53
2022-10-11T23:03:07.217Z,60.00
2022-10-11T23:05:38.935Z,57.91
2022-10-11T23:08:11.064Z,56.63
2022-10-11T23:10:42.777Z,57.65
2022-10-11T23:13:14.399Z,58.85
2022-10-11T23:15:46.554Z,60.08
2022-10-11T23:18:19.393Z,63.35
2022-10-11T23:20:51.085Z,66.01
2022-10-11T23:23:22.764Z,64.61
2022-10-11T23:26:04.859Z,62.88
2022-10-11T23:28:36.691Z,61.85
2022-10-11T23:31:13.582Z,60.79
2022-10-11T23:33:45.571Z,60.23
2022-10-11T23:36:18.958Z,58.44
2022-10-11T23:38:55.247Z,57.28
2022-10-11T23:41:29.099Z,58.03
2022-10-11T23:44:00.807Z,59.12
2022-10-11T23:46:32.564Z,60.41
2022-10-11T23:49:04.564Z,64.48
2022-10-11T23:51:36.404Z,66.43
2022-10-11T23:54:08.522Z,65.09
2022-10-11T23:56:40.543Z,64.47
2022-10-11T23:59:12.286Z,63.21
